Time;durP1;ratioP1;P1;durP2;ratioP2;P2;SDS_P1;SDS_P2;PMS_P1;PMS_P2;Temp;Humidity;BMP_temperature;BMP_pressure;BME280_temperature;BME280_humidity;BME280_pressure;Samples;Min_cycle;Max_cycle;Signal;HPM_P1;HPM_P2
2021/03/31 00:00:22;;;;;;;62.17;38.03;;;;;;;;;;6312618;28;20127;-79
2021/03/31 00:03:24;;;;;;;65.82;38.40;;;;;;;;;;6309447;28;20047;-79
2021/03/31 00:06:25;;;;;;;60.75;38.20;;;;;;;;;;6317775;28;20036;-79
2021/03/31 00:09:26;;;;;;;66.22;38.08;;;;;;;;;;6321440;28;20072;-80
2021/03/31 00:12:27;;;;;;;62.55;37.80;;;;;;;;;;6312476;28;21970;-80
2021/03/31 00:15:29;;;;;;;61.88;36.45;;;;;;;;;;6321639;28;20452;-79
2021/03/31 00:18:31;;;;;;;58.40;36.42;;;;;;;;;;6315731;28;20054;-76
2021/03/31 00:21:33;;;;;;;62.60;38.58;;;;;;;;;;6320160;28;20044;-80
2021/03/31 00:24:34;;;;;;;58.53;37.72;;;;;;;;;;6320128;28;20086;-80
2021/03/31 00:27:35;;;;;;;61.13;37.70;;;;;;;;;;6325245;28;20055;-80
2021/03/31 00:30:37;;;;;;;64.20;39.28;;;;;;;;;;6323723;28;20047;-80
2021/03/31 00:33:39;;;;;;;66.45;37.67;;;;;;;;;;6311218;28;20048;-80
2021/03/31 00:36:40;;;;;;;63.35;38.22;;;;;;;;;;6320673;28;20636;-80
2021/03/31 00:39:41;;;;;;;61.45;37.17;;;;;;;;;;6318849;28;20040;-80
2021/03/31 00:42:43;;;;;;;63.85;38.58;;;;;;;;;;6318442;28;20068;-80
2021/03/31 00:45:44;;;;;;;62.58;38.83;;;;;;;;;;6318059;28;20506;-80
2021/03/31 00:48:46;;;;;;;63.42;39.40;;;;;;;;;;6314877;28;20082;-80
2021/03/31 00:51:48;;;;;;;59.42;38.72;;;;;;;;;;6318595;28;20051;-79
2021/03/31 00:54:49;;;;;;;58.67;39.42;;;;;;;;;;6322112;28;20048;-80
2021/03/31 00:57:50;;;;;;;64.68;38.72;;;;;;;;;;6317412;28;20102;-80
2021/03/31 01:00:52;;;;;;;59.03;38.60;;;;;;;;;;6319658;28;20063;-80
2021/03/31 01:03:54;;;;;;;63.80;36.83;;;;;;;;;;6317033;22;20084;-73
2021/03/31 01:06:55;;;;;;;60.90;39.30;;;;;;;;;;6279207;28;20139;-72
2021/03/31 01:09:56;;;;;;;63.15;37.80;;;;;;;;;;6281740;28;20182;-72
2021/03/31 01:13:04;;;;;;;60.45;37.58;;;;;;;;;;6279300;28;20139;-72
2021/03/31 01:16:12;;;;;;;59.47;38.67;;;;;;;;;;6278389;28;20142;-72
2021/03/31 01:19:51;;;;;;;59.00;39.22;;;;;;;;;;6278500;28;20083;-72
2021/03/31 01:23:38;;;;;;;58.92;37.95;;;;;;;;;;6276419;28;20041;-72
2021/03/31 01:26:44;;;;;;;61.17;38.10;;;;;;;;;;6278935;28;20131;-73
2021/03/31 01:30:05;;;;;;;61.08;39.47;;;;;;;;;;6288253;28;20448;-73
2021/03/31 01:33:26;;;;;;;59.08;38.28;;;;;;;;;;6276941;28;20049;-71
2021/03/31 01:36:29;;;;;;;59.00;37.58;;;;;;;;;;6281751;28;20032;-72
2021/03/31 01:39:31;;;;;;;61.80;39.80;;;;;;;;;;6279898;28;20132;-72
2021/03/31 01:42:34;;;;;;;62.33;38.78;;;;;;;;;;6278294;28;20083;-72
2021/03/31 01:45:36;;;;;;;45.28;28.38;;;;;;;;;;6285657;28;20060;-74
2021/03/31 01:48:38;;;;;;;59.28;37.53;;;;;;;;;;6279668;28;20721;-74
2021/03/31 01:51:41;;;;;;;66.43;38.22;;;;;;;;;;6281541;28;20044;-73
2021/03/31 01:54:44;;;;;;;57.83;38.33;;;;;;;;;;6278061;28;20101;-73
2021/03/31 01:57:45;;;;;;;58.47;38.70;;;;;;;;;;6286713;28;20072;-73
2021/03/31 02:00:47;;;;;;;60.92;37.95;;;;;;;;;;6282615;28;20918;-72
2021/03/31 02:03:51;;;;;;;57.25;37.80;;;;;;;;;;6279317;28;20094;-71
2021/03/31 02:06:54;;;;;;;57.42;37.58;;;;;;;;;;6281980;28;20064;-72
2021/03/31 02:09:56;;;;;;;60.83;37.22;;;;;;;;;;6277675;28;20071;-71
2021/03/31 02:12:58;;;;;;;60.25;37.95;;;;;;;;;;6280813;28;20477;-71
2021/03/31 02:16:00;;;;;;;61.90;39.15;;;;;;;;;;6282726;28;20058;-72
2021/03/31 02:19:02;;;;;;;57.25;37.72;;;;;;;;;;6278247;28;20076;-71
2021/03/31 02:22:05;;;;;;;58.42;37.38;;;;;;;;;;6277991;28;21048;-71
2021/03/31 02:25:07;;;;;;;59.67;38.78;;;;;;;;;;6281343;28;20144;-71
2021/03/31 02:28:08;;;;;;;57.88;37.78;;;;;;;;;;6285125;28;20131;-72
2021/03/31 02:31:10;;;;;;;63.28;38.47;;;;;;;;;;6280981;28;20540;-72
2021/03/31 02:34:15;;;;;;;59.92;38.50;;;;;;;;;;6280693;28;20045;-72
2021/03/31 02:37:18;;;;;;;59.85;39.90;;;;;;;;;;6277361;28;20410;-72
2021/03/31 02:40:20;;;;;;;68.60;40.10;;;;;;;;;;6279100;28;20164;-72
2021/03/31 02:43:22;;;;;;;61.25;39.88;;;;;;;;;;6279770;28;20179;-73
2021/03/31 02:46:24;;;;;;;66.75;40.75;;;;;;;;;;6285950;28;20123;-73
2021/03/31 02:49:28;;;;;;;65.85;41.00;;;;;;;;;;6278435;28;20086;-73
2021/03/31 02:52:31;;;;;;;63.03;42.03;;;;;;;;;;6278725;28;20060;-73
2021/03/31 02:55:32;;;;;;;;;;;;;;;;;;6284330;28;20071;-73
2021/03/31 02:58:34;;;;;;;60.17;41.03;;;;;;;;;;6276420;28;20272;-72
2021/03/31 03:01:36;;;;;;;63.42;42.10;;;;;;;;;;6286642;28;20132;-72
2021/03/31 03:04:38;;;;;;;62.72;41.65;;;;;;;;;;6290955;28;20123;-73
2021/03/31 03:07:40;;;;;;;69.88;45.40;;;;;;;;;;6281300;28;20566;-73
2021/03/31 03:10:41;;;;;;;61.28;42.20;;;;;;;;;;6289559;28;20080;-73
2021/03/31 03:13:43;;;;;;;69.93;42.58;;;;;;;;;;6287151;28;20138;-73
2021/03/31 03:16:44;;;;;;;61.90;42.33;;;;;;;;;;6286368;28;20388;-73
2021/03/31 03:19:45;;;;;;;66.68;41.63;;;;;;;;;;6284496;28;20064;-71
2021/03/31 03:22:49;;;;;;;71.50;44.05;;;;;;;;;;6287445;28;20068;-74
2021/03/31 03:25:50;;;;;;;64.88;42.15;;;;;;;;;;6285891;28;20063;-74
2021/03/31 03:28:51;;;;;;;61.03;41.22;;;;;;;;;;6289497;28;20079;-73
2021/03/31 03:31:53;;;;;;;62.13;40.30;;;;;;;;;;6287818;28;20120;-74
2021/03/31 03:34:55;;;;;;;60.85;41.83;;;;;;;;;;6289138;28;20132;-74
2021/03/31 03:37:57;;;;;;;67.63;41.58;;;;;;;;;;6281816;28;20140;-73
2021/03/31 03:40:58;;;;;;;67.60;42.70;;;;;;;;;;6287444;28;20079;-73
2021/03/31 03:43:59;;;;;;;61.88;40.47;;;;;;;;;;6286313;28;20130;-73
2021/03/31 03:47:00;;;;;;;66.05;41.58;;;;;;;;;;6290217;28;20123;-73
2021/03/31 03:50:04;;;;;;;64.88;41.53;;;;;;;;;;6284668;28;20404;-75
2021/03/31 03:53:06;;;;;;;65.43;42.30;;;;;;;;;;6285806;28;20179;-72
2021/03/31 03:56:10;;;;;;;68.63;42.17;;;;;;;;;;6280948;28;20123;-71
2021/03/31 03:59:19;;;;;;;67.22;41.42;;;;;;;;;;6292324;28;20189;-74
2021/03/31 04:02:20;;;;;;;60.80;40.90;;;;;;;;;;6279554;28;20131;-74
2021/03/31 04:05:22;;;;;;;62.88;40.38;;;;;;;;;;6285013;28;20129;-75
2021/03/31 04:08:24;;;;;;;64.00;41.53;;;;;;;;;;6284766;28;20061;-74
2021/03/31 04:11:26;;;;;;;65.28;40.50;;;;;;;;;;6289100;28;20360;-74
2021/03/31 04:14:27;;;;;;;62.88;41.13;;;;;;;;;;6287827;28;20854;-75
2021/03/31 04:17:29;;;;;;;68.85;42.65;;;;;;;;;;6290460;28;20105;-75
2021/03/31 04:20:31;;;;;;;67.13;41.63;;;;;;;;;;6282864;28;20115;-74
2021/03/31 04:23:33;;;;;;;67.82;41.00;;;;;;;;;;6280903;28;20146;-74
2021/03/31 04:26:35;;;;;;;63.20;40.28;;;;;;;;;;6289169;28;20063;-75
2021/03/31 04:29:38;;;;;;;69.53;41.35;;;;;;;;;;6287779;28;20052;-75
2021/03/31 04:32:39;;;;;;;62.00;39.88;;;;;;;;;;6286603;28;20159;-74
2021/03/31 04:35:40;;;;;;;63.63;41.13;;;;;;;;;;6285253;28;20144;-74
2021/03/31 04:38:45;;;;;;;61.95;40.20;;;;;;;;;;6286919;28;20059;-75
2021/03/31 04:41:46;;;;;;;61.83;40.88;;;;;;;;;;6283304;28;20083;-75
2021/03/31 04:44:47;;;;;;;64.07;40.20;;;;;;;;;;6284854;28;20440;-74
2021/03/31 04:47:48;;;;;;;63.38;40.50;;;;;;;;;;6282133;28;20492;-74
2021/03/31 04:50:49;;;;;;;62.50;40.25;;;;;;;;;;6284186;28;21391;-74
2021/03/31 04:53:51;;;;;;;72.80;41.22;;;;;;;;;;6286779;28;20136;-74
2021/03/31 04:56:52;;;;;;;68.25;41.60;;;;;;;;;;6287929;28;20090;-76
2021/03/31 04:59:53;;;;;;;65.00;40.03;;;;;;;;;;6292216;28;20127;-75
2021/03/31 05:02:55;;;;;;;62.55;39.10;;;;;;;;;;6282922;28;20087;-76
2021/03/31 05:05:56;;;;;;;67.97;40.92;;;;;;;;;;6280707;28;20131;-75
2021/03/31 05:08:58;;;;;;;64.20;41.78;;;;;;;;;;6280825;28;20135;-75
2021/03/31 05:12:00;;;;;;;68.13;41.70;;;;;;;;;;6284516;28;20075;-74
2021/03/31 05:15:01;;;;;;;63.85;41.40;;;;;;;;;;6280345;28;20049;-75
2021/03/31 05:18:02;;;;;;;64.78;40.40;;;;;;;;;;6287089;28;20129;-74
2021/03/31 05:21:04;;;;;;;70.00;42.85;;;;;;;;;;6286424;28;20479;-72
2021/03/31 05:24:07;;;;;;;68.38;42.10;;;;;;;;;;6288328;28;20128;-76
2021/03/31 05:27:08;;;;;;;68.77;40.93;;;;;;;;;;6291821;28;20127;-76
2021/03/31 05:30:11;;;;;;;64.90;40.65;;;;;;;;;;6292028;28;20072;-73
2021/03/31 05:33:12;;;;;;;70.95;42.45;;;;;;;;;;6292448;28;20045;-74
2021/03/31 05:36:13;;;;;;;62.67;39.75;;;;;;;;;;6284794;28;20462;-74
2021/03/31 05:39:15;;;;;;;68.22;42.13;;;;;;;;;;6279112;28;20498;-73
2021/03/31 05:42:16;;;;;;;65.88;42.03;;;;;;;;;;6285806;28;20445;-73
2021/03/31 05:45:18;;;;;;;68.35;41.00;;;;;;;;;;6283376;28;21091;-73
2021/03/31 05:48:19;;;;;;;66.18;42.15;;;;;;;;;;6287389;28;20075;-76
2021/03/31 05:51:20;;;;;;;68.68;42.90;;;;;;;;;;6284015;28;20134;-74
2021/03/31 05:54:22;;;;;;;71.63;40.88;;;;;;;;;;6288230;28;20113;-73
2021/03/31 05:57:24;;;;;;;73.07;42.88;;;;;;;;;;6293910;28;20072;-73
2021/03/31 06:00:26;;;;;;;74.18;42.35;;;;;;;;;;6290451;28;20048;-73
2021/03/31 06:03:27;;;;;;;75.70;42.30;;;;;;;;;;6295396;28;20057;-74
2021/03/31 06:06:28;;;;;;;69.18;41.22;;;;;;;;;;6297947;28;20052;-73
2021/03/31 06:09:30;;;;;;;69.90;41.55;;;;;;;;;;6288362;28;20128;-74
2021/03/31 06:12:32;;;;;;;65.15;41.47;;;;;;;;;;6294857;28;20497;-75
2021/03/31 06:15:37;;;;;;;65.88;41.42;;;;;;;;;;6296455;28;20123;-73
2021/03/31 06:18:38;;;;;;;66.40;41.47;;;;;;;;;;6287235;28;20121;-74
2021/03/31 06:21:40;;;;;;;69.47;42.78;;;;;;;;;;6290383;28;20084;-74
2021/03/31 06:24:46;;;;;;;67.55;42.25;;;;;;;;;;6291631;28;20400;-75
2021/03/31 06:27:52;;;;;;;70.60;44.85;;;;;;;;;;6289151;28;20055;-73
2021/03/31 06:31:05;;;;;;;72.00;44.45;;;;;;;;;;6290931;28;20044;-75
2021/03/31 06:34:08;;;;;;;65.80;43.67;;;;;;;;;;6295415;28;20391;-75
2021/03/31 06:37:22;;;;;;;74.00;44.85;;;;;;;;;;6299158;28;20052;-73
2021/03/31 06:40:32;;;;;;;69.60;45.70;;;;;;;;;;6297000;28;20044;-75
2021/03/31 06:43:42;;;;;;;70.95;43.72;;;;;;;;;;6285278;28;20052;-75
2021/03/31 06:46:49;;;;;;;85.05;46.65;;;;;;;;;;6287380;28;20040;-74
2021/03/31 06:49:51;;;;;;;74.03;45.92;;;;;;;;;;6299263;28;20087;-76
2021/03/31 06:52:53;;;;;;;73.78;47.33;;;;;;;;;;6293283;28;20068;-75
2021/03/31 06:56:02;;;;;;;71.78;47.17;;;;;;;;;;6295798;28;20131;-75
2021/03/31 06:59:04;;;;;;;76.22;47.33;;;;;;;;;;6295843;28;20068;-76
2021/03/31 07:02:06;;;;;;;71.60;47.47;;;;;;;;;;6289378;28;20166;-78
2021/03/31 07:05:09;;;;;;;73.28;48.58;;;;;;;;;;6285349;28;20079;-77
2021/03/31 07:08:12;;;;;;;71.15;47.10;;;;;;;;;;6287192;28;20120;-76
2021/03/31 07:11:32;;;;;;;84.15;47.55;;;;;;;;;;6294372;28;20072;-76
2021/03/31 07:14:33;;;;;;;75.03;48.90;;;;;;;;;;6291659;28;20145;-75
2021/03/31 07:17:34;;;;;;;71.68;48.00;;;;;;;;;;6281095;28;20064;-76
2021/03/31 07:20:36;;;;;;;80.00;48.75;;;;;;;;;;6284922;28;20049;-77
2021/03/31 07:23:37;;;;;;;73.22;49.45;;;;;;;;;;6296130;28;20080;-76
2021/03/31 07:26:40;;;;;;;67.95;46.60;;;;;;;;;;6289266;28;20131;-75
2021/03/31 07:30:05;;;;;;;75.28;48.75;;;;;;;;;;6290895;28;20584;-76
2021/03/31 07:33:10;;;;;;;81.10;50.60;;;;;;;;;;6291697;28;20056;-76
2021/03/31 07:36:13;;;;;;;82.47;48.65;;;;;;;;;;6285120;28;20049;-76
2021/03/31 07:39:17;;;;;;;74.07;50.30;;;;;;;;;;6287231;28;20056;-76
2021/03/31 07:42:20;;;;;;;75.05;50.10;;;;;;;;;;6297141;28;20060;-75
2021/03/31 07:45:24;;;;;;;75.75;49.03;;;;;;;;;;6291690;28;20569;-75
2021/03/31 07:48:26;;;;;;;75.50;50.67;;;;;;;;;;6294753;28;20049;-75
2021/03/31 07:51:29;;;;;;;72.55;49.78;;;;;;;;;;6293565;28;20068;-75
2021/03/31 07:54:32;;;;;;;78.97;49.90;;;;;;;;;;6288830;28;20062;-76
2021/03/31 07:57:34;;;;;;;72.70;48.30;;;;;;;;;;6291117;28;20376;-76
2021/03/31 08:01:05;;;;;;;67.70;46.00;;;;;;;;;;6278377;28;20446;-75
2021/03/31 08:04:07;;;;;;;66.32;44.53;;;;;;;;;;6283967;28;20105;-73
2021/03/31 08:07:19;;;;;;;70.45;45.30;;;;;;;;;;6275604;28;20064;-74
2021/03/31 08:10:31;;;;;;;62.72;41.05;;;;;;;;;;6288075;28;20542;-74
2021/03/31 08:13:38;;;;;;;59.40;39.67;;;;;;;;;;6297589;28;20124;-77
2021/03/31 08:16:41;;;;;;;58.47;38.95;;;;;;;;;;6291766;28;20052;-75
2021/03/31 08:19:47;;;;;;;54.33;36.28;;;;;;;;;;6289151;28;20360;-78
2021/03/31 08:22:48;;;;;;;60.08;38.95;;;;;;;;;;6290583;28;20064;-77
2021/03/31 08:25:49;;;;;;;63.13;39.88;;;;;;;;;;6289888;28;20136;-77
2021/03/31 08:28:51;;;;;;;63.47;39.47;;;;;;;;;;6293099;28;20127;-76
2021/03/31 08:31:56;;;;;;;57.85;38.95;;;;;;;;;;6292359;28;20044;-77
2021/03/31 08:34:57;;;;;;;60.20;38.58;;;;;;;;;;6289636;28;20148;-75
2021/03/31 08:37:59;;;;;;;57.03;37.90;;;;;;;;;;6290630;28;20176;-76
2021/03/31 08:41:13;;;;;;;59.53;38.53;;;;;;;;;;6294641;28;20500;-78
2021/03/31 08:44:21;;;;;;;52.58;34.30;;;;;;;;;;6295318;28;20510;-75
2021/03/31 08:47:25;;;;;;;55.20;32.83;;;;;;;;;;6288447;28;20067;-75
2021/03/31 08:50:34;;;;;;;51.33;34.10;;;;;;;;;;6289557;28;20095;-76
2021/03/31 08:53:35;;;;;;;51.30;33.40;;;;;;;;;;6286929;28;20044;-76
2021/03/31 08:56:36;;;;;;;59.75;36.83;;;;;;;;;;6280401;28;20193;-78
2021/03/31 08:59:40;;;;;;;55.42;36.83;;;;;;;;;;6289804;28;20087;-76
2021/03/31 09:02:41;;;;;;;54.35;36.35;;;;;;;;;;6284962;28;20036;-76
2021/03/31 09:05:57;;;;;;;51.95;33.47;;;;;;;;;;6290763;28;20190;-76
2021/03/31 09:08:58;;;;;;;60.63;35.55;;;;;;;;;;6286707;28;20072;-78
2021/03/31 09:11:59;;;;;;;48.80;33.70;;;;;;;;;;6281975;28;20072;-76
2021/03/31 09:15:02;;;;;;;50.10;33.10;;;;;;;;;;6286963;28;20071;-77
2021/03/31 09:18:04;;;;;;;56.08;34.25;;;;;;;;;;6285226;28;20816;-77
2021/03/31 09:21:05;;;;;;;59.25;36.38;;;;;;;;;;6285395;28;20072;-76
2021/03/31 09:24:12;;;;;;;57.38;34.88;;;;;;;;;;6293605;28;20128;-76
2021/03/31 09:27:15;;;;;;;58.90;37.30;;;;;;;;;;6292895;28;20659;-79
2021/03/31 09:30:18;;;;;;;59.15;38.45;;;;;;;;;;6281590;28;20502;-76
2021/03/31 09:33:26;;;;;;;57.00;37.38;;;;;;;;;;6282313;28;20059;-75
2021/03/31 09:36:27;;;;;;;53.10;38.42;;;;;;;;;;6282974;28;20159;-75
2021/03/31 09:39:43;;;;;;;47.90;34.88;;;;;;;;;;6280941;28;20670;-76
2021/03/31 09:42:45;;;;;;;51.05;36.30;;;;;;;;;;6279228;28;20032;-78
2021/03/31 09:45:53;;;;;;;56.67;37.63;;;;;;;;;;6289393;28;20098;-74
2021/03/31 09:48:55;;;;;;;51.50;36.88;;;;;;;;;;6291191;28;20463;-74
2021/03/31 09:51:56;;;;;;;56.10;38.80;;;;;;;;;;6290502;28;20166;-74
2021/03/31 09:55:00;;;;;;;56.78;37.45;;;;;;;;;;6287865;28;20064;-74
2021/03/31 09:58:02;;;;;;;56.83;39.40;;;;;;;;;;6289528;28;20440;-74
2021/03/31 10:01:04;;;;;;;55.47;42.15;;;;;;;;;;6281893;28;20080;-75
2021/03/31 10:04:06;;;;;;;60.42;41.53;;;;;;;;;;6287035;28;20083;-75
2021/03/31 10:07:12;;;;;;;56.97;39.80;;;;;;;;;;6287228;28;20047;-76
2021/03/31 10:10:13;;;;;;;54.38;41.40;;;;;;;;;;6284582;28;20574;-76
2021/03/31 10:13:15;;;;;;;53.78;42.15;;;;;;;;;;6290214;28;20113;-76
2021/03/31 10:16:17;;;;;;;60.17;41.83;;;;;;;;;;6291336;28;20048;-76
2021/03/31 10:19:18;;;;;;;53.42;40.85;;;;;;;;;;6290552;28;20167;-76
2021/03/31 10:22:20;;;;;;;50.15;37.83;;;;;;;;;;6291590;28;20052;-75
2021/03/31 10:25:27;;;;;;;57.07;41.60;;;;;;;;;;6295781;28;20079;-78
2021/03/31 10:28:34;;;;;;;62.55;39.22;;;;;;;;;;6281433;28;20049;-77
2021/03/31 10:31:39;;;;;;;57.10;41.55;;;;;;;;;;6287908;28;20076;-76
2021/03/31 10:34:41;;;;;;;54.58;38.95;;;;;;;;;;6284673;28;20402;-76
2021/03/31 10:37:57;;;;;;;51.90;39.15;;;;;;;;;;6287288;28;20155;-77
2021/03/31 10:51:35;;;;;;;54.17;38.97;;;;;;;;;;6100856;28;20711;-75
2021/03/31 10:54:36;;;;;;;51.90;40.03;;;;;;;;;;6063245;29;20053;-76
2021/03/31 10:57:37;;;;;;;54.75;40.50;;;;;;;;;;6073707;29;20052;-75
2021/03/31 11:00:38;;;;;;;53.65;40.88;;;;;;;;;;6076599;29;20151;-76
2021/03/31 11:03:40;;;;;;;52.67;39.85;;;;;;;;;;6079212;29;20114;-78
2021/03/31 11:06:41;;;;;;;55.30;41.55;;;;;;;;;;6073110;29;20049;-75
2021/03/31 11:09:43;;;;;;;52.78;37.58;;;;;;;;;;6044538;29;20136;-77
2021/03/31 11:12:44;;;;;;;51.63;37.55;;;;;;;;;;6046331;29;20053;-74
2021/03/31 11:15:46;;;;;;;48.30;36.65;;;;;;;;;;6064384;29;20136;-72
2021/03/31 11:18:55;;;;;;;50.25;36.22;;;;;;;;;;6069375;29;20497;-76
2021/03/31 11:25:40;;;;;;;55.35;38.42;;;;;;;;;;6065809;29;20048;-75
2021/03/31 11:28:42;;;;;;;50.42;38.28;;;;;;;;;;6062658;29;20085;-76
2021/03/31 11:31:43;;;;;;;49.13;38.93;;;;;;;;;;6059404;29;20113;-75
2021/03/31 11:34:44;;;;;;;56.42;38.67;;;;;;;;;;6062751;29;20068;-78
2021/03/31 11:37:46;;;;;;;48.25;36.22;;;;;;;;;;6066065;29;20139;-74
2021/03/31 11:40:47;;;;;;;47.17;35.25;;;;;;;;;;6065045;29;20072;-78
2021/03/31 11:43:48;;;;;;;51.67;37.85;;;;;;;;;;6062838;29;20081;-72
2021/03/31 11:46:49;;;;;;;47.05;36.92;;;;;;;;;;6066802;29;20087;-74
2021/03/31 11:49:50;;;;;;;50.65;33.63;;;;;;;;;;6071786;29;20072;-75
2021/03/31 11:52:53;;;;;;;49.17;35.53;;;;;;;;;;6068857;29;20108;-75
2021/03/31 11:55:54;;;;;;;49.70;35.20;;;;;;;;;;6069602;29;20502;-75
2021/03/31 11:58:56;;;;;;;49.22;31.75;;;;;;;;;;6066402;29;20057;-76
2021/03/31 12:01:57;;;;;;;56.80;32.63;;;;;;;;;;6050677;29;20084;-74
2021/03/31 12:04:58;;;;;;;48.78;34.80;;;;;;;;;;6051117;29;20077;-74
2021/03/31 12:08:00;;;;;;;49.17;33.53;;;;;;;;;;6047921;29;20137;-77
2021/03/31 12:11:01;;;;;;;45.22;31.50;;;;;;;;;;6048400;29;20045;-80
2021/03/31 12:14:02;;;;;;;48.10;32.58;;;;;;;;;;6046025;29;20175;-74
2021/03/31 12:17:04;;;;;;;43.88;32.97;;;;;;;;;;6049758;29;20086;-75
2021/03/31 12:20:11;;;;;;;48.15;33.55;;;;;;;;;;6048341;29;20136;-74
2021/03/31 12:23:13;;;;;;;45.15;30.75;;;;;;;;;;6048361;29;20657;-74
2021/03/31 12:26:16;;;;;;;45.75;31.55;;;;;;;;;;6045644;29;20164;-74
2021/03/31 12:29:18;;;;;;;50.58;34.28;;;;;;;;;;6048897;29;20893;-79
2021/03/31 12:32:19;;;;;;;49.57;33.53;;;;;;;;;;6050400;29;20093;-75
2021/03/31 12:35:21;;;;;;;48.63;33.10;;;;;;;;;;6047778;29;20083;-74
2021/03/31 12:38:23;;;;;;;42.60;31.20;;;;;;;;;;6052812;29;20140;-74
2021/03/31 12:41:24;;;;;;;52.63;33.13;;;;;;;;;;6041769;29;20069;-75
2021/03/31 12:44:26;;;;;;;47.75;32.92;;;;;;;;;;6029477;29;20053;-77
2021/03/31 12:47:27;;;;;;;44.80;29.60;;;;;;;;;;6029360;29;20104;-75
2021/03/31 12:50:28;;;;;;;42.53;30.52;;;;;;;;;;6033536;29;20556;-75
2021/03/31 12:53:33;;;;;;;47.45;28.98;;;;;;;;;;6050839;29;20437;-75
2021/03/31 12:56:34;;;;;;;43.65;30.42;;;;;;;;;;6052799;29;20071;-75
2021/03/31 12:59:35;;;;;;;43.95;30.42;;;;;;;;;;6050239;29;20125;-74
2021/03/31 13:02:36;;;;;;;49.35;30.80;;;;;;;;;;6051319;29;20144;-74
2021/03/31 13:05:38;;;;;;;46.15;28.83;;;;;;;;;;6046086;29;20172;-74
2021/03/31 13:08:40;;;;;;;;;;;;;;;;;;6049951;29;20397;-74
2021/03/31 13:11:41;;;;;;;42.47;29.95;;;;;;;;;;6047828;29;19935;-75
2021/03/31 13:18:13;;;;;;;46.42;29.63;;;;;;;;;;6038362;29;20057;-74
2021/03/31 13:24:40;;;;;;;44.90;27.73;;;;;;;;;;6047878;29;20080;-75
2021/03/31 13:31:03;;;;;;;47.67;27.77;;;;;;;;;;6047586;29;20077;-73
2021/03/31 13:34:08;;;;;;;49.22;28.27;;;;;;;;;;6049696;29;20350;-77
2021/03/31 13:37:13;;;;;;;49.72;28.45;;;;;;;;;;6047618;29;20055;-72
2021/03/31 13:40:15;;;;;;;41.17;26.75;;;;;;;;;;6048529;29;20056;-73
2021/03/31 13:43:16;;;;;;;49.92;31.90;;;;;;;;;;6046572;29;20074;-73
2021/03/31 13:46:17;;;;;;;51.67;31.63;;;;;;;;;;6045219;29;20459;-73
2021/03/31 13:49:26;;;;;;;51.22;29.33;;;;;;;;;;6047086;29;20399;-74
2021/03/31 13:52:29;;;;;;;46.92;28.48;;;;;;;;;;6026345;29;20064;-74
2021/03/31 13:55:32;;;;;;;46.30;27.83;;;;;;;;;;6025850;29;20061;-73
2021/03/31 13:58:33;;;;;;;42.85;25.58;;;;;;;;;;6049116;29;20110;-75
2021/03/31 14:01:34;;;;;;;43.35;27.75;;;;;;;;;;6049371;29;20759;-74
2021/03/31 14:04:35;;;;;;;51.47;29.70;;;;;;;;;;6051641;29;20148;-73
2021/03/31 14:07:36;;;;;;;55.55;28.30;;;;;;;;;;6051392;29;20143;-74
2021/03/31 14:10:38;;;;;;;49.05;25.95;;;;;;;;;;6052918;29;20144;-73
2021/03/31 14:13:39;;;;;;;42.15;25.65;;;;;;;;;;6050809;29;20121;-74
2021/03/31 14:16:43;;;;;;;45.10;25.45;;;;;;;;;;6041385;29;20052;-73
2021/03/31 14:19:46;;;;;;;44.75;27.02;;;;;;;;;;6228920;23;20052;-73
2021/03/31 14:22:48;;;;;;;42.75;26.15;;;;;;;;;;6070883;29;20712;-72
2021/03/31 14:25:50;;;;;;;57.53;29.52;;;;;;;;;;6077076;29;20100;-72
2021/03/31 14:28:51;;;;;;;43.88;27.77;;;;;;;;;;6065289;29;20174;-73
2021/03/31 14:31:52;;;;;;;45.83;25.23;;;;;;;;;;6071197;29;20056;-74
2021/03/31 14:34:53;;;;;;;43.75;25.73;;;;;;;;;;6076501;29;20169;-72
2021/03/31 14:37:54;;;;;;;54.25;25.00;;;;;;;;;;6078828;29;20477;-72
2021/03/31 14:40:56;;;;;;;43.53;24.40;;;;;;;;;;6066473;29;20080;-72
2021/03/31 14:43:57;;;;;;;42.17;25.92;;;;;;;;;;6068122;29;20075;-72
2021/03/31 14:46:58;;;;;;;55.22;26.58;;;;;;;;;;6079890;29;20052;-74
2021/03/31 14:50:00;;;;;;;40.10;24.33;;;;;;;;;;6072911;29;20132;-74
2021/03/31 14:56:48;;;;;;;45.58;25.65;;;;;;;;;;6068631;29;20052;-73
2021/03/31 14:59:50;;;;;;;42.63;25.15;;;;;;;;;;6074670;29;20123;-74
2021/03/31 15:02:51;;;;;;;41.30;23.70;;;;;;;;;;6075633;29;20075;-73
2021/03/31 15:05:52;;;;;;;40.58;24.45;;;;;;;;;;6076222;29;20080;-77
2021/03/31 15:08:53;;;;;;;44.23;26.43;;;;;;;;;;6077264;29;20058;-73
2021/03/31 15:11:58;;;;;;;42.67;24.73;;;;;;;;;;6078954;29;20987;-74
2021/03/31 15:14:59;;;;;;;49.03;24.25;;;;;;;;;;6079574;29;20657;-73
2021/03/31 15:18:01;;;;;;;44.40;25.52;;;;;;;;;;6084656;29;20139;-73
2021/03/31 15:21:05;;;;;;;;;;;;;;;;;;6098173;29;20151;-77
2021/03/31 15:24:08;;;;;;;42.50;24.67;;;;;;;;;;6095109;29;19927;-75
2021/03/31 15:27:10;;;;;;;60.67;24.33;;;;;;;;;;6096090;29;20108;-74
2021/03/31 15:30:13;;;;;;;39.58;23.13;;;;;;;;;;6094300;29;20189;-72
2021/03/31 15:33:14;;;;;;;35.28;23.83;;;;;;;;;;6094679;29;20072;-73
2021/03/31 15:36:15;;;;;;;40.88;23.42;;;;;;;;;;6085429;29;20161;-74
2021/03/31 15:39:17;;;;;;;34.00;21.30;;;;;;;;;;6103123;29;20107;-74
2021/03/31 15:42:19;;;;;;;38.80;21.10;;;;;;;;;;6099685;29;20124;-75
2021/03/31 15:45:20;;;;;;;36.03;21.17;;;;;;;;;;6096006;29;20181;-74
2021/03/31 15:48:21;;;;;;;39.27;20.27;;;;;;;;;;6098506;29;20079;-73
2021/03/31 15:51:22;;;;;;;33.03;20.20;;;;;;;;;;6103729;29;20184;-73
2021/03/31 15:54:24;;;;;;;33.70;21.75;;;;;;;;;;6108158;29;20083;-72
2021/03/31 15:57:26;;;;;;;39.75;21.58;;;;;;;;;;6106765;29;20135;-74
2021/03/31 16:00:27;;;;;;;39.50;21.60;;;;;;;;;;6096877;29;20123;-75
2021/03/31 16:03:30;;;;;;;39.30;20.80;;;;;;;;;;6097631;29;20135;-72
2021/03/31 16:09:56;;;;;;;40.92;22.17;;;;;;;;;;6082651;29;20084;-76
2021/03/31 16:12:59;;;;;;;38.47;20.70;;;;;;;;;;6100200;29;20083;-74
2021/03/31 16:16:01;;;;;;;41.63;19.55;;;;;;;;;;6102756;29;20124;-72
2021/03/31 16:19:02;;;;;;;44.42;19.90;;;;;;;;;;6098177;29;20063;-74
2021/03/31 16:22:04;;;;;;;37.20;20.75;;;;;;;;;;6093281;29;20087;-74
2021/03/31 16:25:07;;;;;;;33.80;18.95;;;;;;;;;;6099495;29;20141;-77
2021/03/31 16:28:27;;;;;;;43.42;20.58;;;;;;;;;;6095052;29;20115;-73
2021/03/31 16:31:28;;;;;;;37.88;20.23;;;;;;;;;;6090687;29;20076;-75
2021/03/31 16:34:29;;;;;;;35.10;19.58;;;;;;;;;;6094243;29;20147;-73
2021/03/31 16:37:31;;;;;;;31.10;19.15;;;;;;;;;;6094621;29;20491;-72
2021/03/31 16:40:32;;;;;;;31.83;18.27;;;;;;;;;;6094084;29;20055;-74
2021/03/31 16:43:34;;;;;;;40.17;18.92;;;;;;;;;;6102515;29;20076;-73
2021/03/31 16:46:35;;;;;;;36.67;20.30;;;;;;;;;;6098823;29;20143;-74
2021/03/31 16:49:37;;;;;;;34.92;18.70;;;;;;;;;;6103040;29;20090;-74
2021/03/31 16:52:38;;;;;;;36.97;18.08;;;;;;;;;;6103585;29;20195;-76
2021/03/31 16:55:39;;;;;;;41.97;19.02;;;;;;;;;;6105041;29;20067;-74
2021/03/31 16:58:41;;;;;;;36.08;19.83;;;;;;;;;;6101563;29;20091;-73
2021/03/31 17:01:42;;;;;;;45.95;19.65;;;;;;;;;;6096475;29;20242;-74
2021/03/31 17:04:43;;;;;;;36.47;20.50;;;;;;;;;;6110515;29;20172;-73
2021/03/31 17:07:44;;;;;;;39.72;17.85;;;;;;;;;;6095445;29;20242;-79
2021/03/31 17:10:49;;;;;;;50.38;19.60;;;;;;;;;;6091434;29;20512;-74
2021/03/31 17:13:51;;;;;;;42.38;19.70;;;;;;;;;;6095336;29;20059;-75
2021/03/31 17:16:52;;;;;;;36.87;18.23;;;;;;;;;;6094309;29;20051;-75
2021/03/31 17:19:53;;;;;;;42.95;19.30;;;;;;;;;;6088816;29;20130;-76
2021/03/31 17:22:54;;;;;;;44.00;18.50;;;;;;;;;;6096807;29;20055;-76
2021/03/31 17:25:55;;;;;;;53.47;18.25;;;;;;;;;;6093382;29;20055;-77
2021/03/31 17:28:57;;;;;;;43.70;19.05;;;;;;;;;;6095847;29;20595;-76
2021/03/31 17:31:59;;;;;;;41.08;18.30;;;;;;;;;;6091804;29;20448;-76
2021/03/31 17:35:00;;;;;;;40.97;18.52;;;;;;;;;;6098802;29;20080;-75
2021/03/31 17:38:04;;;;;;;52.70;18.08;;;;;;;;;;6096871;29;20067;-75
2021/03/31 17:41:05;;;;;;;49.75;18.25;;;;;;;;;;6098483;29;20044;-75
2021/03/31 17:44:07;;;;;;;41.47;17.30;;;;;;;;;;6094950;29;20079;-75
2021/03/31 17:47:08;;;;;;;39.08;17.00;;;;;;;;;;6090112;29;20139;-75
2021/03/31 17:50:12;;;;;;;43.72;16.83;;;;;;;;;;6087998;29;20447;-76
2021/03/31 17:53:16;;;;;;;34.53;17.10;;;;;;;;;;6088986;29;20041;-75
2021/03/31 17:56:16;;;;;;;;;;;;;;;;;;6091976;29;20052;-74
2021/03/31 17:59:22;;;;;;;36.88;17.05;;;;;;;;;;6091164;29;19930;-74
2021/03/31 18:02:23;;;;;;;37.60;16.65;;;;;;;;;;6092786;29;20043;-75
2021/03/31 18:05:24;;;;;;;37.72;15.98;;;;;;;;;;6095563;29;20394;-74
2021/03/31 18:08:26;;;;;;;32.70;16.77;;;;;;;;;;6096177;29;20048;-72
2021/03/31 18:11:27;;;;;;;35.20;17.08;;;;;;;;;;6097942;29;20083;-71
2021/03/31 18:14:29;;;;;;;39.90;17.27;;;;;;;;;;6094795;29;20071;-72
2021/03/31 18:17:30;;;;;;;37.40;16.83;;;;;;;;;;6092295;29;20063;-72